<?xml version='1.0' encoding='UTF-8'?>
<gpx version="1.1" creator="https://www.komoot.de" xmlns="http://www.topografix.com/GPX/1/1" xmlns:xsi="http://www.w3.org/2001/XMLSchema-instance" xsi:schemaLocation="http://www.topografix.com/GPX/1/1 http://www.topografix.com/GPX/1/1/gpx.xsd">
  <metadata>
    <name>Tour A-Gemeinschaftliches Wohnen-Höchst-Unterliederbach-Griesheim-Niederrad-Frankfurt House Darmst. Ldstr. 109-14,4+4,8km-70HM-09.05.2026</name>
    <author>
      <link href="https://www.komoot.de">
        <text>komoot</text>
        <type>text/html</type>
      </link>
    </author>
  </metadata>
  <trk>
    <name>Tour A-Gemeinschaftliches Wohnen-Höchst-Unterliederbach-Griesheim-Niederrad-Frankfurt House Darmst. Ldstr. 109-14,4+4,8km-70HM-09.05.2026</name>
    <trkseg>
      <trkpt lat="50.099015" lon="8.549898">
        <ele>88.224009</ele>
        <time>2026-04-15T19:53:27.591Z</time>
      </trkpt>
      <trkpt lat="50.098828" lon="8.549636">
        <ele>88.224009</ele>
        <time>2026-04-15T19:53:31.027Z</time>
      </trkpt>
      <trkpt lat="50.098773" lon="8.549599">
        <ele>88.224009</ele>
        <time>2026-04-15T19:53:31.831Z</time>
      </trkpt>
      <trkpt lat="50.098627" lon="8.549590">
        <ele>88.224009</ele>
        <time>2026-04-15T19:53:33.848Z</time>
      </trkpt>
      <trkpt lat="50.098254" lon="8.548830">
        <ele>88.219654</ele>
        <time>2026-04-15T19:53:42.393Z</time>
      </trkpt>
      <trkpt lat="50.097588" lon="8.547643">
        <ele>88.194032</ele>
        <time>2026-04-15T19:53:58.642Z</time>
      </trkpt>
      <trkpt lat="50.097183" lon="8.547056">
        <ele>88.180026</ele>
        <time>2026-04-15T19:54:10.646Z</time>
      </trkpt>
      <trkpt lat="50.096926" lon="8.546708">
        <ele>89.057035</ele>
        <time>2026-04-15T19:54:18.522Z</time>
      </trkpt>
      <trkpt lat="50.096657" lon="8.546356">
        <ele>90.165615</ele>
        <time>2026-04-15T19:54:27.858Z</time>
      </trkpt>
      <trkpt lat="50.096926" lon="8.546708">
        <ele>91.274195</ele>
        <time>2026-04-15T19:54:38.660Z</time>
      </trkpt>
      <trkpt lat="50.097023" lon="8.546525">
        <ele>91.754869</ele>
        <time>2026-04-15T19:54:49.292Z</time>
      </trkpt>
      <trkpt lat="50.097076" lon="8.546432">
        <ele>92.006756</ele>
        <time>2026-04-15T19:54:54.836Z</time>
      </trkpt>
      <trkpt lat="50.096864" lon="8.545988">
        <ele>93.127485</ele>
        <time>2026-04-15T19:55:19.527Z</time>
      </trkpt>
      <trkpt lat="50.096818" lon="8.546071">
        <ele>93.349581</ele>
        <time>2026-04-15T19:55:24.412Z</time>
      </trkpt>
      <trkpt lat="50.096864" lon="8.545988">
        <ele>93.571677</ele>
        <time>2026-04-15T19:55:29.301Z</time>
      </trkpt>
      <trkpt lat="50.097173" lon="8.545475">
        <ele>95.382402</ele>
        <time>2026-04-15T19:56:00.747Z</time>
      </trkpt>
      <trkpt lat="50.097321" lon="8.545325">
        <ele>96.128079</ele>
        <time>2026-04-15T19:56:12.995Z</time>
      </trkpt>
      <trkpt lat="50.097497" lon="8.545194">
        <ele>96.951912</ele>
        <time>2026-04-15T19:56:26.574Z</time>
      </trkpt>
      <trkpt lat="50.097563" lon="8.545180">
        <ele>97.233270</ele>
        <time>2026-04-15T19:56:31.194Z</time>
      </trkpt>
      <trkpt lat="50.097651" lon="8.545212">
        <ele>97.614968</ele>
        <time>2026-04-15T19:56:37.464Z</time>
      </trkpt>
      <trkpt lat="50.097828" lon="8.545501">
        <ele>98.697664</ele>
        <time>2026-04-15T19:56:55.319Z</time>
      </trkpt>
      <trkpt lat="50.098059" lon="8.545248">
        <ele>99.890173</ele>
        <time>2026-04-15T19:57:14.938Z</time>
      </trkpt>
      <trkpt lat="50.098100" lon="8.545219">
        <ele>100.080354</ele>
        <time>2026-04-15T19:57:18.058Z</time>
      </trkpt>
      <trkpt lat="50.098141" lon="8.545188">
        <ele>100.272836</ele>
        <time>2026-04-15T19:57:21.208Z</time>
      </trkpt>
      <trkpt lat="50.098026" lon="8.544900">
        <ele>101.192053</ele>
        <time>2026-04-15T19:57:36.348Z</time>
      </trkpt>
      <trkpt lat="50.098008" lon="8.544855">
        <ele>101.335750</ele>
        <time>2026-04-15T19:57:38.705Z</time>
      </trkpt>
      <trkpt lat="50.098064" lon="8.544596">
        <ele>101.632569</ele>
        <time>2026-04-15T19:57:50.915Z</time>
      </trkpt>
      <trkpt lat="50.098167" lon="8.544529">
        <ele>101.768167</ele>
        <time>2026-04-15T19:57:54.151Z</time>
      </trkpt>
      <trkpt lat="50.098790" lon="8.544125">
        <ele>102.587961</ele>
        <time>2026-04-15T19:58:10.321Z</time>
      </trkpt>
      <trkpt lat="50.099104" lon="8.543892">
        <ele>103.010470</ele>
        <time>2026-04-15T19:58:17.875Z</time>
      </trkpt>
      <trkpt lat="50.099441" lon="8.543665">
        <ele>103.456496</ele>
        <time>2026-04-15T19:58:24.614Z</time>
      </trkpt>
      <trkpt lat="50.099607" lon="8.544073">
        <ele>103.641328</ele>
        <time>2026-04-15T19:58:29.908Z</time>
      </trkpt>
      <trkpt lat="50.099985" lon="8.544917">
        <ele>103.652314</ele>
        <time>2026-04-15T19:58:41.412Z</time>
      </trkpt>
      <trkpt lat="50.100157" lon="8.545282">
        <ele>103.657147</ele>
        <time>2026-04-15T19:58:46.936Z</time>
      </trkpt>
      <trkpt lat="50.100230" lon="8.545437">
        <ele>103.659200</ele>
        <time>2026-04-15T19:58:49.228Z</time>
      </trkpt>
      <trkpt lat="50.100411" lon="8.545822">
        <ele>103.664294</ele>
        <time>2026-04-15T19:58:54.852Z</time>
      </trkpt>
      <trkpt lat="50.100679" lon="8.545516">
        <ele>103.673328</ele>
        <time>2026-04-15T19:59:00.898Z</time>
      </trkpt>
      <trkpt lat="50.101146" lon="8.545001">
        <ele>103.710004</ele>
        <time>2026-04-15T19:59:11.403Z</time>
      </trkpt>
      <trkpt lat="50.101716" lon="8.544348">
        <ele>103.755355</ele>
        <time>2026-04-15T19:59:24.008Z</time>
      </trkpt>
      <trkpt lat="50.102017" lon="8.544030">
        <ele>103.778668</ele>
        <time>2026-04-15T19:59:30.402Z</time>
      </trkpt>
      <trkpt lat="50.102077" lon="8.543970">
        <ele>103.783238</ele>
        <time>2026-04-15T19:59:31.726Z</time>
      </trkpt>
      <trkpt lat="50.102130" lon="8.543915">
        <ele>103.789438</ele>
        <time>2026-04-15T19:59:32.813Z</time>
      </trkpt>
      <trkpt lat="50.102155" lon="8.544010">
        <ele>103.796286</ele>
        <time>2026-04-15T19:59:37.374Z</time>
      </trkpt>
      <trkpt lat="50.102186" lon="8.544179">
        <ele>103.808009</ele>
        <time>2026-04-15T19:59:45.190Z</time>
      </trkpt>
      <trkpt lat="50.102249" lon="8.544726">
        <ele>103.845071</ele>
        <time>2026-04-15T20:00:09.973Z</time>
      </trkpt>
      <trkpt lat="50.102296" lon="8.545138">
        <ele>103.872978</ele>
        <time>2026-04-15T20:00:28.618Z</time>
      </trkpt>
      <trkpt lat="50.102306" lon="8.545228">
        <ele>103.879070</ele>
        <time>2026-04-15T20:00:32.684Z</time>
      </trkpt>
      <trkpt lat="50.102340" lon="8.545526">
        <ele>103.899255</ele>
        <time>2026-04-15T20:00:46.206Z</time>
      </trkpt>
      <trkpt lat="50.102414" lon="8.546206">
        <ele>103.945252</ele>
        <time>2026-04-15T20:01:16.937Z</time>
      </trkpt>
      <trkpt lat="50.102479" lon="8.546806">
        <ele>103.857655</ele>
        <time>2026-04-15T20:01:44.047Z</time>
      </trkpt>
      <trkpt lat="50.102450" lon="8.546813">
        <ele>103.834480</ele>
        <time>2026-04-15T20:01:46.101Z</time>
      </trkpt>
      <trkpt lat="50.102476" lon="8.547070">
        <ele>103.702684</ele>
        <time>2026-04-15T20:01:57.716Z</time>
      </trkpt>
      <trkpt lat="50.102515" lon="8.547171">
        <ele>103.642966</ele>
        <time>2026-04-15T20:02:02.981Z</time>
      </trkpt>
      <trkpt lat="50.102588" lon="8.547210">
        <ele>103.582023</ele>
        <time>2026-04-15T20:02:08.356Z</time>
      </trkpt>
      <trkpt lat="50.102630" lon="8.547316">
        <ele>103.518909</ele>
        <time>2026-04-15T20:02:13.900Z</time>
      </trkpt>
      <trkpt lat="50.102657" lon="8.547384">
        <ele>103.478397</ele>
        <time>2026-04-15T20:02:17.438Z</time>
      </trkpt>
      <trkpt lat="50.102740" lon="8.547257">
        <ele>103.386552</ele>
        <time>2026-04-15T20:02:19.164Z</time>
      </trkpt>
      <trkpt lat="50.102798" lon="8.547271">
        <ele>103.340200</ele>
        <time>2026-04-15T20:02:20.042Z</time>
      </trkpt>
      <trkpt lat="50.102980" lon="8.547136">
        <ele>103.181027</ele>
        <time>2026-04-15T20:02:23.575Z</time>
      </trkpt>
      <trkpt lat="50.103336" lon="8.546820">
        <ele>102.857500</ele>
        <time>2026-04-15T20:02:32.095Z</time>
      </trkpt>
      <trkpt lat="50.103406" lon="8.546758">
        <ele>102.793919</ele>
        <time>2026-04-15T20:02:33.520Z</time>
      </trkpt>
      <trkpt lat="50.103435" lon="8.546737">
        <ele>102.768667</ele>
        <time>2026-04-15T20:02:34.094Z</time>
      </trkpt>
      <trkpt lat="50.103707" lon="8.546462">
        <ele>102.527648</ele>
        <time>2026-04-15T20:02:40.059Z</time>
      </trkpt>
      <trkpt lat="50.104113" lon="8.547202">
        <ele>102.230235</ele>
        <time>2026-04-15T20:02:50.859Z</time>
      </trkpt>
      <trkpt lat="50.104675" lon="8.548223">
        <ele>101.819322</ele>
        <time>2026-04-15T20:03:05.046Z</time>
      </trkpt>
      <trkpt lat="50.104815" lon="8.548372">
        <ele>101.738607</ele>
        <time>2026-04-15T20:03:07.840Z</time>
      </trkpt>
      <trkpt lat="50.105396" lon="8.548833">
        <ele>101.646003</ele>
        <time>2026-04-15T20:03:18.818Z</time>
      </trkpt>
      <trkpt lat="50.105648" lon="8.548970">
        <ele>101.623067</ele>
        <time>2026-04-15T20:03:23.482Z</time>
      </trkpt>
      <trkpt lat="50.105925" lon="8.549123">
        <ele>101.597812</ele>
        <time>2026-04-15T20:03:28.759Z</time>
      </trkpt>
      <trkpt lat="50.106564" lon="8.549440">
        <ele>101.540183</ele>
        <time>2026-04-15T20:03:41.281Z</time>
      </trkpt>
      <trkpt lat="50.106535" lon="8.549519">
        <ele>101.563936</ele>
        <time>2026-04-15T20:03:42.393Z</time>
      </trkpt>
      <trkpt lat="50.107360" lon="8.549886">
        <ele>101.991664</ele>
        <time>2026-04-15T20:03:58.364Z</time>
      </trkpt>
      <trkpt lat="50.109369" lon="8.550851">
        <ele>103.534687</ele>
        <time>2026-04-15T20:04:41.137Z</time>
      </trkpt>
      <trkpt lat="50.109473" lon="8.550852">
        <ele>103.629058</ele>
        <time>2026-04-15T20:04:43.552Z</time>
      </trkpt>
      <trkpt lat="50.109561" lon="8.550809">
        <ele>103.712737</ele>
        <time>2026-04-15T20:04:45.714Z</time>
      </trkpt>
      <trkpt lat="50.109543" lon="8.550687">
        <ele>103.785588</ele>
        <time>2026-04-15T20:04:47.739Z</time>
      </trkpt>
      <trkpt lat="50.109619" lon="8.550212">
        <ele>104.069759</ele>
        <time>2026-04-15T20:04:55.778Z</time>
      </trkpt>
      <trkpt lat="50.109632" lon="8.550173">
        <ele>104.087220</ele>
        <time>2026-04-15T20:04:56.488Z</time>
      </trkpt>
      <trkpt lat="50.110050" lon="8.548763">
        <ele>104.704286</ele>
        <time>2026-04-15T20:05:17.573Z</time>
      </trkpt>
      <trkpt lat="50.110105" lon="8.548674">
        <ele>104.753384</ele>
        <time>2026-04-15T20:05:19.043Z</time>
      </trkpt>
      <trkpt lat="50.110849" lon="8.547786">
        <ele>105.402310</ele>
        <time>2026-04-15T20:05:38.618Z</time>
      </trkpt>
      <trkpt lat="50.110878" lon="8.547875">
        <ele>105.459925</ele>
        <time>2026-04-15T20:05:40.847Z</time>
      </trkpt>
      <trkpt lat="50.110981" lon="8.548181">
        <ele>105.659376</ele>
        <time>2026-04-15T20:05:48.194Z</time>
      </trkpt>
      <trkpt lat="50.111051" lon="8.548080">
        <ele>105.745202</ele>
        <time>2026-04-15T20:05:50.948Z</time>
      </trkpt>
      <trkpt lat="50.111418" lon="8.547874">
        <ele>106.096226</ele>
        <time>2026-04-15T20:06:02.689Z</time>
      </trkpt>
      <trkpt lat="50.111831" lon="8.547648">
        <ele>106.490121</ele>
        <time>2026-04-15T20:06:17.366Z</time>
      </trkpt>
      <trkpt lat="50.111892" lon="8.547618">
        <ele>106.547683</ele>
        <time>2026-04-15T20:06:19.516Z</time>
      </trkpt>
      <trkpt lat="50.111984" lon="8.547573">
        <ele>106.634455</ele>
        <time>2026-04-15T20:06:22.744Z</time>
      </trkpt>
      <trkpt lat="50.112270" lon="8.547434">
        <ele>106.937275</ele>
        <time>2026-04-15T20:06:32.553Z</time>
      </trkpt>
      <trkpt lat="50.112411" lon="8.547366">
        <ele>107.112924</ele>
        <time>2026-04-15T20:06:37.292Z</time>
      </trkpt>
      <trkpt lat="50.112738" lon="8.547208">
        <ele>107.520345</ele>
        <time>2026-04-15T20:06:47.962Z</time>
      </trkpt>
      <trkpt lat="50.112749" lon="8.547160">
        <ele>107.559247</ele>
        <time>2026-04-15T20:06:50.251Z</time>
      </trkpt>
      <trkpt lat="50.112758" lon="8.547117">
        <ele>107.593769</ele>
        <time>2026-04-15T20:06:52.276Z</time>
      </trkpt>
      <trkpt lat="50.113076" lon="8.546928">
        <ele>107.998782</ele>
        <time>2026-04-15T20:07:15.905Z</time>
      </trkpt>
      <trkpt lat="50.113294" lon="8.546799">
        <ele>108.276278</ele>
        <time>2026-04-15T20:07:32.125Z</time>
      </trkpt>
      <trkpt lat="50.113323" lon="8.546901">
        <ele>108.361431</ele>
        <time>2026-04-15T20:07:37.103Z</time>
      </trkpt>
      <trkpt lat="50.113588" lon="8.546718">
        <ele>108.706353</ele>
        <time>2026-04-15T20:07:45.792Z</time>
      </trkpt>
      <trkpt lat="50.113843" lon="8.546543">
        <ele>108.991637</ele>
        <time>2026-04-15T20:07:53.966Z</time>
      </trkpt>
      <trkpt lat="50.114102" lon="8.546371">
        <ele>109.165694</ele>
        <time>2026-04-15T20:08:01.999Z</time>
      </trkpt>
      <trkpt lat="50.114462" lon="8.546132">
        <ele>109.407614</ele>
        <time>2026-04-15T20:08:13.026Z</time>
      </trkpt>
      <trkpt lat="50.114374" lon="8.545320">
        <ele>109.734128</ele>
        <time>2026-04-15T20:08:49.700Z</time>
      </trkpt>
      <trkpt lat="50.114320" lon="8.545082">
        <ele>109.834226</ele>
        <time>2026-04-15T20:09:00.991Z</time>
      </trkpt>
      <trkpt lat="50.114315" lon="8.545070">
        <ele>109.839900</ele>
        <time>2026-04-15T20:09:01.609Z</time>
      </trkpt>
      <trkpt lat="50.114320" lon="8.545082">
        <ele>109.845574</ele>
        <time>2026-04-15T20:09:02.228Z</time>
      </trkpt>
      <trkpt lat="50.114374" lon="8.545320">
        <ele>109.945671</ele>
        <time>2026-04-15T20:09:13.519Z</time>
      </trkpt>
      <trkpt lat="50.114462" lon="8.546132">
        <ele>109.774537</ele>
        <time>2026-04-15T20:09:50.193Z</time>
      </trkpt>
      <trkpt lat="50.114102" lon="8.546371">
        <ele>109.465446</ele>
        <time>2026-04-15T20:09:58.391Z</time>
      </trkpt>
      <trkpt lat="50.113843" lon="8.546543">
        <ele>109.243062</ele>
        <time>2026-04-15T20:10:04.406Z</time>
      </trkpt>
      <trkpt lat="50.113588" lon="8.546718">
        <ele>109.022973</ele>
        <time>2026-04-15T20:10:10.275Z</time>
      </trkpt>
      <trkpt lat="50.113323" lon="8.546901">
        <ele>108.794021</ele>
        <time>2026-04-15T20:10:16.228Z</time>
      </trkpt>
      <trkpt lat="50.113342" lon="8.547187">
        <ele>108.648361</ele>
        <time>2026-04-15T20:10:20.044Z</time>
      </trkpt>
      <trkpt lat="50.113425" lon="8.547981">
        <ele>108.154193</ele>
        <time>2026-04-15T20:10:30.978Z</time>
      </trkpt>
      <trkpt lat="50.113492" lon="8.548627">
        <ele>107.749422</ele>
        <time>2026-04-15T20:10:40.108Z</time>
      </trkpt>
      <trkpt lat="50.113097" lon="8.548725">
        <ele>107.363630</ele>
        <time>2026-04-15T20:10:46.476Z</time>
      </trkpt>
      <trkpt lat="50.112933" lon="8.548776">
        <ele>107.202327</ele>
        <time>2026-04-15T20:10:49.050Z</time>
      </trkpt>
      <trkpt lat="50.112695" lon="8.548836">
        <ele>106.969782</ele>
        <time>2026-04-15T20:10:52.669Z</time>
      </trkpt>
      <trkpt lat="50.112417" lon="8.548899">
        <ele>106.662978</ele>
        <time>2026-04-15T20:10:56.854Z</time>
      </trkpt>
      <trkpt lat="50.112399" lon="8.548904">
        <ele>106.642168</ele>
        <time>2026-04-15T20:10:57.125Z</time>
      </trkpt>
      <trkpt lat="50.111880" lon="8.549051">
        <ele>106.041782</ele>
        <time>2026-04-15T20:11:05.180Z</time>
      </trkpt>
      <trkpt lat="50.111541" lon="8.549147">
        <ele>105.649624</ele>
        <time>2026-04-15T20:11:10.547Z</time>
      </trkpt>
      <trkpt lat="50.111331" lon="8.549207">
        <ele>105.406624</ele>
        <time>2026-04-15T20:11:13.929Z</time>
      </trkpt>
      <trkpt lat="50.111225" lon="8.550848">
        <ele>104.328758</ele>
        <time>2026-04-15T20:11:30.396Z</time>
      </trkpt>
      <trkpt lat="50.111193" lon="8.551330">
        <ele>104.043833</ele>
        <time>2026-04-15T20:11:35.372Z</time>
      </trkpt>
      <trkpt lat="50.110623" lon="8.551308">
        <ele>103.521057</ele>
        <time>2026-04-15T20:11:44.453Z</time>
      </trkpt>
      <trkpt lat="50.110500" lon="8.551242">
        <ele>103.401792</ele>
        <time>2026-04-15T20:11:46.396Z</time>
      </trkpt>
      <trkpt lat="50.110333" lon="8.551137">
        <ele>103.236696</ele>
        <time>2026-04-15T20:11:49.092Z</time>
      </trkpt>
      <trkpt lat="50.110290" lon="8.551363">
        <ele>103.066316</ele>
        <time>2026-04-15T20:11:52.282Z</time>
      </trkpt>
      <trkpt lat="50.110269" lon="8.551468">
        <ele>102.981794</ele>
        <time>2026-04-15T20:11:53.777Z</time>
      </trkpt>
      <trkpt lat="50.110232" lon="8.551647">
        <ele>102.837271</ele>
        <time>2026-04-15T20:11:56.355Z</time>
      </trkpt>
      <trkpt lat="50.109750" lon="8.551484">
        <ele>102.246280</ele>
        <time>2026-04-15T20:12:05.362Z</time>
      </trkpt>
      <trkpt lat="50.109599" lon="8.551455">
        <ele>102.063974</ele>
        <time>2026-04-15T20:12:08.115Z</time>
      </trkpt>
      <trkpt lat="50.109353" lon="8.551453">
        <ele>101.769197</ele>
        <time>2026-04-15T20:12:12.409Z</time>
      </trkpt>
      <trkpt lat="50.109380" lon="8.551850">
        <ele>101.462400</ele>
        <time>2026-04-15T20:12:16.148Z</time>
      </trkpt>
      <trkpt lat="50.109417" lon="8.552276">
        <ele>101.132041</ele>
        <time>2026-04-15T20:12:19.951Z</time>
      </trkpt>
      <trkpt lat="50.109369" lon="8.552511">
        <ele>100.845444</ele>
        <time>2026-04-15T20:12:24.191Z</time>
      </trkpt>
      <trkpt lat="50.109428" lon="8.553038">
        <ele>100.049983</ele>
        <time>2026-04-15T20:12:33.300Z</time>
      </trkpt>
      <trkpt lat="50.109505" lon="8.553337">
        <ele>99.570887</ele>
        <time>2026-04-15T20:12:38.719Z</time>
      </trkpt>
      <trkpt lat="50.109552" lon="8.553434">
        <ele>99.390118</ele>
        <time>2026-04-15T20:12:40.776Z</time>
      </trkpt>
      <trkpt lat="50.109380" lon="8.554101">
        <ele>98.321166</ele>
        <time>2026-04-15T20:13:12.837Z</time>
      </trkpt>
      <trkpt lat="50.109112" lon="8.555162">
        <ele>96.827272</ele>
        <time>2026-04-15T20:14:03.690Z</time>
      </trkpt>
      <trkpt lat="50.109206" lon="8.555457">
        <ele>96.731762</ele>
        <time>2026-04-15T20:14:18.371Z</time>
      </trkpt>
      <trkpt lat="50.109446" lon="8.555801">
        <ele>96.584379</ele>
        <time>2026-04-15T20:14:40.983Z</time>
      </trkpt>
      <trkpt lat="50.110149" lon="8.556271">
        <ele>96.238568</ele>
        <time>2026-04-15T20:15:34.165Z</time>
      </trkpt>
      <trkpt lat="50.110485" lon="8.556471">
        <ele>96.075969</ele>
        <time>2026-04-15T20:15:59.146Z</time>
      </trkpt>
      <trkpt lat="50.110474" lon="8.556535">
        <ele>96.043669</ele>
        <time>2026-04-15T20:16:02.118Z</time>
      </trkpt>
      <trkpt lat="50.110462" lon="8.556604">
        <ele>95.979161</ele>
        <time>2026-04-15T20:16:05.292Z</time>
      </trkpt>
      <trkpt lat="50.110433" lon="8.556762">
        <ele>95.830873</ele>
        <time>2026-04-15T20:16:12.626Z</time>
      </trkpt>
      <trkpt lat="50.110254" lon="8.557195">
        <ele>95.366036</ele>
        <time>2026-04-15T20:16:35.558Z</time>
      </trkpt>
      <trkpt lat="50.110128" lon="8.557393">
        <ele>95.114349</ele>
        <time>2026-04-15T20:16:47.994Z</time>
      </trkpt>
      <trkpt lat="50.110083" lon="8.557569">
        <ele>94.943386</ele>
        <time>2026-04-15T20:16:56.425Z</time>
      </trkpt>
      <trkpt lat="50.110081" lon="8.557593">
        <ele>94.921549</ele>
        <time>2026-04-15T20:16:57.508Z</time>
      </trkpt>
      <trkpt lat="50.110018" lon="8.558138">
        <ele>94.421863</ele>
        <time>2026-04-15T20:17:22.176Z</time>
      </trkpt>
      <trkpt lat="50.109974" lon="8.558259">
        <ele>94.296353</ele>
        <time>2026-04-15T20:17:28.386Z</time>
      </trkpt>
      <trkpt lat="50.109835" lon="8.558526">
        <ele>93.986049</ele>
        <time>2026-04-15T20:17:31.911Z</time>
      </trkpt>
      <trkpt lat="50.109681" lon="8.558741">
        <ele>93.695217</ele>
        <time>2026-04-15T20:17:35.218Z</time>
      </trkpt>
      <trkpt lat="50.109399" lon="8.559115">
        <ele>93.412258</ele>
        <time>2026-04-15T20:17:41.431Z</time>
      </trkpt>
      <trkpt lat="50.109137" lon="8.559505">
        <ele>93.241339</ele>
        <time>2026-04-15T20:17:47.784Z</time>
      </trkpt>
      <trkpt lat="50.108852" lon="8.559877">
        <ele>93.065959</ele>
        <time>2026-04-15T20:17:54.775Z</time>
      </trkpt>
      <trkpt lat="50.108666" lon="8.560121">
        <ele>92.951262</ele>
        <time>2026-04-15T20:17:59.762Z</time>
      </trkpt>
      <trkpt lat="50.108539" lon="8.560286">
        <ele>92.873258</ele>
        <time>2026-04-15T20:18:03.237Z</time>
      </trkpt>
      <trkpt lat="50.108448" lon="8.560405">
        <ele>92.817216</ele>
        <time>2026-04-15T20:18:05.751Z</time>
      </trkpt>
      <trkpt lat="50.108367" lon="8.560575">
        <ele>92.753126</ele>
        <time>2026-04-15T20:18:08.586Z</time>
      </trkpt>
      <trkpt lat="50.108320" lon="8.560743">
        <ele>92.697659</ele>
        <time>2026-04-15T20:18:11.022Z</time>
      </trkpt>
      <trkpt lat="50.108208" lon="8.561385">
        <ele>92.766737</ele>
        <time>2026-04-15T20:18:20.030Z</time>
      </trkpt>
      <trkpt lat="50.108046" lon="8.562316">
        <ele>92.896340</ele>
        <time>2026-04-15T20:18:32.851Z</time>
      </trkpt>
      <trkpt lat="50.107954" lon="8.563327">
        <ele>93.033528</ele>
        <time>2026-04-15T20:18:44.801Z</time>
      </trkpt>
      <trkpt lat="50.107860" lon="8.564164">
        <ele>92.957524</ele>
        <time>2026-04-15T20:18:54.567Z</time>
      </trkpt>
      <trkpt lat="50.107813" lon="8.564347">
        <ele>92.926324</ele>
        <time>2026-04-15T20:18:56.654Z</time>
      </trkpt>
      <trkpt lat="50.107785" lon="8.564443">
        <ele>92.909633</ele>
        <time>2026-04-15T20:18:58.150Z</time>
      </trkpt>
      <trkpt lat="50.107566" lon="8.564709">
        <ele>92.841125</ele>
        <time>2026-04-15T20:19:04.273Z</time>
      </trkpt>
      <trkpt lat="50.107162" lon="8.564811">
        <ele>92.740127</ele>
        <time>2026-04-15T20:19:13.336Z</time>
      </trkpt>
      <trkpt lat="50.107128" lon="8.564936">
        <ele>92.718637</ele>
        <time>2026-04-15T20:19:14.905Z</time>
      </trkpt>
      <trkpt lat="50.107177" lon="8.565108">
        <ele>92.688849</ele>
        <time>2026-04-15T20:19:17.063Z</time>
      </trkpt>
      <trkpt lat="50.107564" lon="8.565302">
        <ele>92.602927</ele>
        <time>2026-04-15T20:19:24.304Z</time>
      </trkpt>
      <trkpt lat="50.107932" lon="8.565635">
        <ele>92.551956</ele>
        <time>2026-04-15T20:19:32.052Z</time>
      </trkpt>
      <trkpt lat="50.108420" lon="8.566059">
        <ele>92.485031</ele>
        <time>2026-04-15T20:19:43.162Z</time>
      </trkpt>
      <trkpt lat="50.108860" lon="8.566596">
        <ele>92.418094</ele>
        <time>2026-04-15T20:19:53.866Z</time>
      </trkpt>
      <trkpt lat="50.108913" lon="8.566729">
        <ele>92.406064</ele>
        <time>2026-04-15T20:19:56.986Z</time>
      </trkpt>
      <trkpt lat="50.109068" lon="8.567065">
        <ele>92.330992</ele>
        <time>2026-04-15T20:20:01.889Z</time>
      </trkpt>
      <trkpt lat="50.109037" lon="8.567090">
        <ele>92.320053</ele>
        <time>2026-04-15T20:20:02.520Z</time>
      </trkpt>
      <trkpt lat="50.108782" lon="8.567294">
        <ele>92.230225</ele>
        <time>2026-04-15T20:20:07.717Z</time>
      </trkpt>
      <trkpt lat="50.108752" lon="8.567317">
        <ele>92.219747</ele>
        <time>2026-04-15T20:20:08.297Z</time>
      </trkpt>
      <trkpt lat="50.108838" lon="8.567627">
        <ele>92.151855</ele>
        <time>2026-04-15T20:20:11.775Z</time>
      </trkpt>
      <trkpt lat="50.108866" lon="8.567819">
        <ele>92.112276</ele>
        <time>2026-04-15T20:20:13.757Z</time>
      </trkpt>
      <trkpt lat="50.108871" lon="8.568139">
        <ele>92.047934</ele>
        <time>2026-04-15T20:20:16.949Z</time>
      </trkpt>
      <trkpt lat="50.108855" lon="8.568367">
        <ele>92.001831</ele>
        <time>2026-04-15T20:20:19.256Z</time>
      </trkpt>
      <trkpt lat="50.108726" lon="8.569090">
        <ele>91.850983</ele>
        <time>2026-04-15T20:20:27.074Z</time>
      </trkpt>
      <trkpt lat="50.108534" lon="8.569991">
        <ele>91.927739</ele>
        <time>2026-04-15T20:20:37.716Z</time>
      </trkpt>
      <trkpt lat="50.108465" lon="8.570480">
        <ele>91.979115</ele>
        <time>2026-04-15T20:20:43.525Z</time>
      </trkpt>
      <trkpt lat="50.108491" lon="8.571333">
        <ele>92.066741</ele>
        <time>2026-04-15T20:20:53.523Z</time>
      </trkpt>
      <trkpt lat="50.108548" lon="8.571844">
        <ele>92.119962</ele>
        <time>2026-04-15T20:20:59.634Z</time>
      </trkpt>
      <trkpt lat="50.108588" lon="8.572009">
        <ele>92.147056</ele>
        <time>2026-04-15T20:21:01.720Z</time>
      </trkpt>
      <trkpt lat="50.108760" lon="8.572713">
        <ele>92.277888</ele>
        <time>2026-04-15T20:21:10.689Z</time>
      </trkpt>
      <trkpt lat="50.108854" lon="8.572974">
        <ele>92.329873</ele>
        <time>2026-04-15T20:21:14.285Z</time>
      </trkpt>
      <trkpt lat="50.109452" lon="8.574174">
        <ele>92.593788</ele>
        <time>2026-04-15T20:21:32.160Z</time>
      </trkpt>
      <trkpt lat="50.109617" lon="8.574513">
        <ele>92.629484</ele>
        <time>2026-04-15T20:21:37.048Z</time>
      </trkpt>
      <trkpt lat="50.111144" lon="8.577558">
        <ele>92.652899</ele>
        <time>2026-04-15T20:22:19.903Z</time>
      </trkpt>
      <trkpt lat="50.111594" lon="8.578695">
        <ele>92.545146</ele>
        <time>2026-04-15T20:22:33.953Z</time>
      </trkpt>
      <trkpt lat="50.111892" lon="8.579840">
        <ele>92.678616</ele>
        <time>2026-04-15T20:22:47.061Z</time>
      </trkpt>
      <trkpt lat="50.112033" lon="8.580576">
        <ele>92.772669</ele>
        <time>2026-04-15T20:22:55.698Z</time>
      </trkpt>
      <trkpt lat="50.112222" lon="8.582140">
        <ele>93.252545</ele>
        <time>2026-04-15T20:23:16.745Z</time>
      </trkpt>
      <trkpt lat="50.112457" lon="8.584170">
        <ele>94.341612</ele>
        <time>2026-04-15T20:23:45.151Z</time>
      </trkpt>
      <trkpt lat="50.112522" lon="8.584733">
        <ele>94.410042</ele>
        <time>2026-04-15T20:23:52.107Z</time>
      </trkpt>
      <trkpt lat="50.112810" lon="8.587068">
        <ele>94.644031</ele>
        <time>2026-04-15T20:24:17.844Z</time>
      </trkpt>
      <trkpt lat="50.112819" lon="8.587163">
        <ele>94.671491</ele>
        <time>2026-04-15T20:24:18.883Z</time>
      </trkpt>
      <trkpt lat="50.112591" lon="8.587359">
        <ele>94.787583</ele>
        <time>2026-04-15T20:24:24.134Z</time>
      </trkpt>
      <trkpt lat="50.112017" lon="8.587851">
        <ele>95.079650</ele>
        <time>2026-04-15T20:24:38.300Z</time>
      </trkpt>
      <trkpt lat="50.111744" lon="8.588136">
        <ele>95.226144</ele>
        <time>2026-04-15T20:24:45.619Z</time>
      </trkpt>
      <trkpt lat="50.111623" lon="8.588261">
        <ele>95.290865</ele>
        <time>2026-04-15T20:24:48.865Z</time>
      </trkpt>
      <trkpt lat="50.111460" lon="8.588435">
        <ele>95.378947</ele>
        <time>2026-04-15T20:24:53.250Z</time>
      </trkpt>
      <trkpt lat="50.110378" lon="8.589546">
        <ele>95.893930</ele>
        <time>2026-04-15T20:25:20.903Z</time>
      </trkpt>
      <trkpt lat="50.109323" lon="8.590645">
        <ele>96.070267</ele>
        <time>2026-04-15T20:25:46.266Z</time>
      </trkpt>
      <trkpt lat="50.109077" lon="8.590901">
        <ele>96.046652</ele>
        <time>2026-04-15T20:25:51.860Z</time>
      </trkpt>
      <trkpt lat="50.109021" lon="8.590939">
        <ele>96.041775</ele>
        <time>2026-04-15T20:25:53.008Z</time>
      </trkpt>
      <trkpt lat="50.108857" lon="8.591065">
        <ele>96.027177</ele>
        <time>2026-04-15T20:25:56.393Z</time>
      </trkpt>
      <trkpt lat="50.106331" lon="8.593683">
        <ele>95.386697</ele>
        <time>2026-04-15T20:26:51.562Z</time>
      </trkpt>
      <trkpt lat="50.106632" lon="8.595198">
        <ele>95.444243</ele>
        <time>2026-04-15T20:27:12.523Z</time>
      </trkpt>
      <trkpt lat="50.106510" lon="8.596988">
        <ele>95.700022</ele>
        <time>2026-04-15T20:27:36.569Z</time>
      </trkpt>
      <trkpt lat="50.106536" lon="8.597319">
        <ele>95.751606</ele>
        <time>2026-04-15T20:27:40.845Z</time>
      </trkpt>
      <trkpt lat="50.106911" lon="8.598588">
        <ele>95.912985</ele>
        <time>2026-04-15T20:27:58.141Z</time>
      </trkpt>
      <trkpt lat="50.107359" lon="8.599570">
        <ele>95.976027</ele>
        <time>2026-04-15T20:28:13.082Z</time>
      </trkpt>
      <trkpt lat="50.107200" lon="8.599896">
        <ele>95.997452</ele>
        <time>2026-04-15T20:28:18.321Z</time>
      </trkpt>
      <trkpt lat="50.107081" lon="8.600016">
        <ele>96.009012</ele>
        <time>2026-04-15T20:28:21.240Z</time>
      </trkpt>
      <trkpt lat="50.106822" lon="8.600378">
        <ele>96.021718</ele>
        <time>2026-04-15T20:28:28.410Z</time>
      </trkpt>
      <trkpt lat="50.106642" lon="8.600641">
        <ele>95.986240</ele>
        <time>2026-04-15T20:28:33.426Z</time>
      </trkpt>
      <trkpt lat="50.106415" lon="8.600963">
        <ele>95.942104</ele>
        <time>2026-04-15T20:28:39.467Z</time>
      </trkpt>
      <trkpt lat="50.106080" lon="8.601425">
        <ele>95.877781</ele>
        <time>2026-04-15T20:28:48.139Z</time>
      </trkpt>
      <trkpt lat="50.106045" lon="8.601484">
        <ele>95.870367</ele>
        <time>2026-04-15T20:28:49.133Z</time>
      </trkpt>
      <trkpt lat="50.105744" lon="8.601736">
        <ele>95.821231</ele>
        <time>2026-04-15T20:28:55.641Z</time>
      </trkpt>
      <trkpt lat="50.105647" lon="8.601802">
        <ele>95.806010</ele>
        <time>2026-04-15T20:28:57.638Z</time>
      </trkpt>
      <trkpt lat="50.104966" lon="8.602208">
        <ele>95.750375</ele>
        <time>2026-04-15T20:29:11.455Z</time>
      </trkpt>
      <trkpt lat="50.104710" lon="8.602303">
        <ele>95.738446</ele>
        <time>2026-04-15T20:29:16.591Z</time>
      </trkpt>
      <trkpt lat="50.104717" lon="8.602457">
        <ele>95.733958</ele>
        <time>2026-04-15T20:29:18.880Z</time>
      </trkpt>
      <trkpt lat="50.104710" lon="8.602303">
        <ele>95.729469</ele>
        <time>2026-04-15T20:29:21.223Z</time>
      </trkpt>
      <trkpt lat="50.103824" lon="8.602445">
        <ele>95.698831</ele>
        <time>2026-04-15T20:29:37.753Z</time>
      </trkpt>
      <trkpt lat="50.103760" lon="8.602460">
        <ele>95.707788</ele>
        <time>2026-04-15T20:29:38.913Z</time>
      </trkpt>
      <trkpt lat="50.103708" lon="8.602472">
        <ele>95.715062</ele>
        <time>2026-04-15T20:29:39.877Z</time>
      </trkpt>
      <trkpt lat="50.103832" lon="8.603626">
        <ele>95.818921</ele>
        <time>2026-04-15T20:29:53.608Z</time>
      </trkpt>
      <trkpt lat="50.103938" lon="8.604619">
        <ele>95.908274</ele>
        <time>2026-04-15T20:30:05.779Z</time>
      </trkpt>
      <trkpt lat="50.103428" lon="8.604775">
        <ele>95.995147</ele>
        <time>2026-04-15T20:30:15.475Z</time>
      </trkpt>
      <trkpt lat="50.103348" lon="8.604791">
        <ele>96.010503</ele>
        <time>2026-04-15T20:30:21.097Z</time>
      </trkpt>
      <trkpt lat="50.103082" lon="8.604882">
        <ele>96.062349</ele>
        <time>2026-04-15T20:30:39.969Z</time>
      </trkpt>
      <trkpt lat="50.102916" lon="8.604933">
        <ele>96.094561</ele>
        <time>2026-04-15T20:30:51.757Z</time>
      </trkpt>
      <trkpt lat="50.102762" lon="8.604981">
        <ele>96.124460</ele>
        <time>2026-04-15T20:31:02.684Z</time>
      </trkpt>
      <trkpt lat="50.102497" lon="8.605073">
        <ele>96.176146</ele>
        <time>2026-04-15T20:31:21.554Z</time>
      </trkpt>
      <trkpt lat="50.102110" lon="8.605175">
        <ele>96.250870</ele>
        <time>2026-04-15T20:31:48.846Z</time>
      </trkpt>
      <trkpt lat="50.101709" lon="8.605302">
        <ele>96.295467</ele>
        <time>2026-04-15T20:32:17.228Z</time>
      </trkpt>
      <trkpt lat="50.101535" lon="8.605358">
        <ele>96.304767</ele>
        <time>2026-04-15T20:32:29.601Z</time>
      </trkpt>
      <trkpt lat="50.101066" lon="8.605508">
        <ele>96.329828</ele>
        <time>2026-04-15T20:33:02.880Z</time>
      </trkpt>
      <trkpt lat="50.100802" lon="8.605603">
        <ele>96.344010</ele>
        <time>2026-04-15T20:33:21.703Z</time>
      </trkpt>
      <trkpt lat="50.100662" lon="8.605654">
        <ele>96.351536</ele>
        <time>2026-04-15T20:33:31.727Z</time>
      </trkpt>
      <trkpt lat="50.100421" lon="8.605728">
        <ele>96.364394</ele>
        <time>2026-04-15T20:33:48.739Z</time>
      </trkpt>
      <trkpt lat="50.100430" lon="8.605631">
        <ele>96.367684</ele>
        <time>2026-04-15T20:33:50.163Z</time>
      </trkpt>
      <trkpt lat="50.100385" lon="8.605631">
        <ele>96.370040</ele>
        <time>2026-04-15T20:33:53.290Z</time>
      </trkpt>
      <trkpt lat="50.100354" lon="8.605632">
        <ele>96.371663</ele>
        <time>2026-04-15T20:33:55.417Z</time>
      </trkpt>
      <trkpt lat="50.100328" lon="8.605630">
        <ele>96.373026</ele>
        <time>2026-04-15T20:33:57.246Z</time>
      </trkpt>
      <trkpt lat="50.100301" lon="8.605628">
        <ele>96.374441</ele>
        <time>2026-04-15T20:33:59.159Z</time>
      </trkpt>
      <trkpt lat="50.100285" lon="8.605684">
        <ele>96.376499</ele>
        <time>2026-04-15T20:34:01.896Z</time>
      </trkpt>
      <trkpt lat="50.100227" lon="8.605685">
        <ele>96.353302</ele>
        <time>2026-04-15T20:34:05.879Z</time>
      </trkpt>
      <trkpt lat="50.100212" lon="8.605685">
        <ele>96.346003</ele>
        <time>2026-04-15T20:34:06.935Z</time>
      </trkpt>
      <trkpt lat="50.100212" lon="8.605618">
        <ele>96.325091</ele>
        <time>2026-04-15T20:34:09.958Z</time>
      </trkpt>
      <trkpt lat="50.100176" lon="8.605618">
        <ele>96.307575</ele>
        <time>2026-04-15T20:34:12.460Z</time>
      </trkpt>
      <trkpt lat="50.100145" lon="8.605618">
        <ele>96.292491</ele>
        <time>2026-04-15T20:34:14.621Z</time>
      </trkpt>
      <trkpt lat="50.100119" lon="8.605619">
        <ele>96.279836</ele>
        <time>2026-04-15T20:34:16.380Z</time>
      </trkpt>
      <trkpt lat="50.100079" lon="8.605620">
        <ele>96.260371</ele>
        <time>2026-04-15T20:34:19.202Z</time>
      </trkpt>
      <trkpt lat="50.100088" lon="8.605923">
        <ele>96.165700</ele>
        <time>2026-04-15T20:34:22.816Z</time>
      </trkpt>
      <trkpt lat="50.100105" lon="8.606452">
        <ele>96.000385</ele>
        <time>2026-04-15T20:34:29.125Z</time>
      </trkpt>
      <trkpt lat="50.100111" lon="8.607247">
        <ele>95.752239</ele>
        <time>2026-04-15T20:34:38.462Z</time>
      </trkpt>
      <trkpt lat="50.100111" lon="8.607582">
        <ele>95.647682</ele>
        <time>2026-04-15T20:34:42.327Z</time>
      </trkpt>
      <trkpt lat="50.100104" lon="8.607842">
        <ele>95.566461</ele>
        <time>2026-04-15T20:34:45.321Z</time>
      </trkpt>
      <trkpt lat="50.100079" lon="8.607969">
        <ele>95.524998</ele>
        <time>2026-04-15T20:34:47.128Z</time>
      </trkpt>
      <trkpt lat="50.100051" lon="8.609910">
        <ele>95.606232</ele>
        <time>2026-04-15T20:35:14.984Z</time>
      </trkpt>
      <trkpt lat="50.097715" lon="8.610599">
        <ele>97.222153</ele>
        <time>2026-04-15T20:36:05.242Z</time>
      </trkpt>
      <trkpt lat="50.097601" lon="8.610636">
        <ele>97.277256</ele>
        <time>2026-04-15T20:36:07.953Z</time>
      </trkpt>
      <trkpt lat="50.097460" lon="8.610678">
        <ele>97.331486</ele>
        <time>2026-04-15T20:36:11.215Z</time>
      </trkpt>
      <trkpt lat="50.096873" lon="8.610860">
        <ele>97.557582</ele>
        <time>2026-04-15T20:36:24.148Z</time>
      </trkpt>
      <trkpt lat="50.096568" lon="8.610918">
        <ele>97.673657</ele>
        <time>2026-04-15T20:36:30.407Z</time>
      </trkpt>
      <trkpt lat="50.096567" lon="8.612521">
        <ele>97.885827</ele>
        <time>2026-04-15T20:36:48.008Z</time>
      </trkpt>
      <trkpt lat="50.096586" lon="8.613351">
        <ele>97.835481</ele>
        <time>2026-04-15T20:36:57.439Z</time>
      </trkpt>
      <trkpt lat="50.096572" lon="8.613520">
        <ele>97.825151</ele>
        <time>2026-04-15T20:36:59.373Z</time>
      </trkpt>
      <trkpt lat="50.096572" lon="8.614137">
        <ele>97.787749</ele>
        <time>2026-04-15T20:37:06.315Z</time>
      </trkpt>
      <trkpt lat="50.096589" lon="8.614976">
        <ele>97.751008</ele>
        <time>2026-04-15T20:37:15.599Z</time>
      </trkpt>
      <trkpt lat="50.096592" lon="8.615036">
        <ele>97.750975</ele>
        <time>2026-04-15T20:37:16.252Z</time>
      </trkpt>
      <trkpt lat="50.096593" lon="8.615133">
        <ele>97.750922</ele>
        <time>2026-04-15T20:37:17.311Z</time>
      </trkpt>
      <trkpt lat="50.096540" lon="8.615233">
        <ele>97.750851</ele>
        <time>2026-04-15T20:37:19.621Z</time>
      </trkpt>
      <trkpt lat="50.096439" lon="8.615411">
        <ele>97.750722</ele>
        <time>2026-04-15T20:37:23.755Z</time>
      </trkpt>
      <trkpt lat="50.096027" lon="8.615680">
        <ele>97.750342</ele>
        <time>2026-04-15T20:37:35.764Z</time>
      </trkpt>
      <trkpt lat="50.095129" lon="8.616069">
        <ele>97.781238</ele>
        <time>2026-04-15T20:37:51.291Z</time>
      </trkpt>
      <trkpt lat="50.094699" lon="8.616211">
        <ele>97.986895</ele>
        <time>2026-04-15T20:37:59.047Z</time>
      </trkpt>
      <trkpt lat="50.094486" lon="8.616325">
        <ele>98.092267</ele>
        <time>2026-04-15T20:38:03.197Z</time>
      </trkpt>
      <trkpt lat="50.093413" lon="8.616835">
        <ele>98.594626</ele>
        <time>2026-04-15T20:38:26.478Z</time>
      </trkpt>
      <trkpt lat="50.093115" lon="8.616977">
        <ele>98.614018</ele>
        <time>2026-04-15T20:38:32.626Z</time>
      </trkpt>
      <trkpt lat="50.092748" lon="8.617286">
        <ele>98.639976</ele>
        <time>2026-04-15T20:38:40.269Z</time>
      </trkpt>
      <trkpt lat="50.092358" lon="8.617532">
        <ele>98.666158</ele>
        <time>2026-04-15T20:38:47.654Z</time>
      </trkpt>
      <trkpt lat="50.092218" lon="8.617676">
        <ele>98.676597</ele>
        <time>2026-04-15T20:38:50.522Z</time>
      </trkpt>
      <trkpt lat="50.091600" lon="8.617881">
        <ele>98.522854</ele>
        <time>2026-04-15T20:39:00.482Z</time>
      </trkpt>
      <trkpt lat="50.091573" lon="8.617662">
        <ele>98.397583</ele>
        <time>2026-04-15T20:39:02.784Z</time>
      </trkpt>
      <trkpt lat="50.091450" lon="8.616561">
        <ele>97.769800</ele>
        <time>2026-04-15T20:39:13.890Z</time>
      </trkpt>
      <trkpt lat="50.091442" lon="8.616487">
        <ele>97.727646</ele>
        <time>2026-04-15T20:39:14.614Z</time>
      </trkpt>
      <trkpt lat="50.091123" lon="8.616705">
        <ele>97.422669</ele>
        <time>2026-04-15T20:39:19.821Z</time>
      </trkpt>
      <trkpt lat="50.090690" lon="8.616858">
        <ele>97.102749</ele>
        <time>2026-04-15T20:39:26.380Z</time>
      </trkpt>
      <trkpt lat="50.090618" lon="8.616958">
        <ele>97.079921</ele>
        <time>2026-04-15T20:39:27.813Z</time>
      </trkpt>
      <trkpt lat="50.090534" lon="8.616993">
        <ele>97.059340</ele>
        <time>2026-04-15T20:39:29.273Z</time>
      </trkpt>
      <trkpt lat="50.090511" lon="8.617042">
        <ele>97.050119</ele>
        <time>2026-04-15T20:39:29.933Z</time>
      </trkpt>
      <trkpt lat="50.088277" lon="8.617494">
        <ele>96.772046</ele>
        <time>2026-04-15T20:40:12.407Z</time>
      </trkpt>
      <trkpt lat="50.088274" lon="8.617034">
        <ele>96.798225</ele>
        <time>2026-04-15T20:40:18.695Z</time>
      </trkpt>
      <trkpt lat="50.088239" lon="8.617036">
        <ele>96.801331</ele>
        <time>2026-04-15T20:40:19.399Z</time>
      </trkpt>
      <trkpt lat="50.088245" lon="8.617528">
        <ele>96.829334</ele>
        <time>2026-04-15T20:40:25.834Z</time>
      </trkpt>
      <trkpt lat="50.088315" lon="8.617553">
        <ele>96.835704</ele>
        <time>2026-04-15T20:40:27.592Z</time>
      </trkpt>
      <trkpt lat="50.088298" lon="8.618043">
        <ele>96.853969</ele>
        <time>2026-04-15T20:40:33.098Z</time>
      </trkpt>
      <trkpt lat="50.088167" lon="8.620760">
        <ele>96.075691</ele>
        <time>2026-04-15T20:41:00.536Z</time>
      </trkpt>
      <trkpt lat="50.088090" lon="8.621381">
        <ele>95.925200</ele>
        <time>2026-04-15T20:41:09.223Z</time>
      </trkpt>
      <trkpt lat="50.087991" lon="8.623799">
        <ele>95.408450</ele>
        <time>2026-04-15T20:41:43.796Z</time>
      </trkpt>
      <trkpt lat="50.087959" lon="8.626080">
        <ele>95.437705</ele>
        <time>2026-04-15T20:42:18.189Z</time>
      </trkpt>
      <trkpt lat="50.087975" lon="8.627384">
        <ele>95.658898</ele>
        <time>2026-04-15T20:42:38.377Z</time>
      </trkpt>
      <trkpt lat="50.088001" lon="8.628112">
        <ele>95.819747</ele>
        <time>2026-04-15T20:42:50.325Z</time>
      </trkpt>
      <trkpt lat="50.088017" lon="8.628540">
        <ele>95.914326</ele>
        <time>2026-04-15T20:42:57.266Z</time>
      </trkpt>
      <trkpt lat="50.088038" lon="8.628684">
        <ele>95.946903</ele>
        <time>2026-04-15T20:42:59.686Z</time>
      </trkpt>
      <trkpt lat="50.088026" lon="8.628867">
        <ele>95.987484</ele>
        <time>2026-04-15T20:43:02.542Z</time>
      </trkpt>
      <trkpt lat="50.087974" lon="8.628883">
        <ele>96.005708</ele>
        <time>2026-04-15T20:43:03.516Z</time>
      </trkpt>
      <trkpt lat="50.087935" lon="8.628899">
        <ele>96.019574</ele>
        <time>2026-04-15T20:43:04.219Z</time>
      </trkpt>
      <trkpt lat="50.087849" lon="8.628921">
        <ele>96.049539</ele>
        <time>2026-04-15T20:43:05.808Z</time>
      </trkpt>
      <trkpt lat="50.087836" lon="8.628927">
        <ele>96.054201</ele>
        <time>2026-04-15T20:43:06.063Z</time>
      </trkpt>
      <trkpt lat="50.087765" lon="8.628947">
        <ele>96.082100</ele>
        <time>2026-04-15T20:43:07.348Z</time>
      </trkpt>
      <trkpt lat="50.087835" lon="8.629092">
        <ele>96.128723</ele>
        <time>2026-04-15T20:43:10.209Z</time>
      </trkpt>
      <trkpt lat="50.087856" lon="8.629265">
        <ele>96.173962</ele>
        <time>2026-04-15T20:43:13.067Z</time>
      </trkpt>
      <trkpt lat="50.087838" lon="8.630010">
        <ele>96.365515</ele>
        <time>2026-04-15T20:43:25.444Z</time>
      </trkpt>
      <trkpt lat="50.087871" lon="8.630240">
        <ele>96.426070</ele>
        <time>2026-04-15T20:43:29.338Z</time>
      </trkpt>
      <trkpt lat="50.087854" lon="8.630547">
        <ele>96.505242</ele>
        <time>2026-04-15T20:43:33.185Z</time>
      </trkpt>
      <trkpt lat="50.087826" lon="8.631249">
        <ele>96.685959</ele>
        <time>2026-04-15T20:43:41.439Z</time>
      </trkpt>
      <trkpt lat="50.087868" lon="8.631252">
        <ele>96.702796</ele>
        <time>2026-04-15T20:43:44.374Z</time>
      </trkpt>
      <trkpt lat="50.087897" lon="8.631329">
        <ele>96.725737</ele>
        <time>2026-04-15T20:43:48.342Z</time>
      </trkpt>
      <trkpt lat="50.087957" lon="8.631357">
        <ele>96.750818</ele>
        <time>2026-04-15T20:43:52.697Z</time>
      </trkpt>
      <trkpt lat="50.088028" lon="8.631366">
        <ele>96.779344</ele>
        <time>2026-04-15T20:43:57.683Z</time>
      </trkpt>
      <trkpt lat="50.088091" lon="8.631426">
        <ele>96.775678</ele>
        <time>2026-04-15T20:44:02.812Z</time>
      </trkpt>
      <trkpt lat="50.088125" lon="8.631600">
        <ele>96.767727</ele>
        <time>2026-04-15T20:44:10.920Z</time>
      </trkpt>
      <trkpt lat="50.088133" lon="8.631641">
        <ele>96.765854</ele>
        <time>2026-04-15T20:44:11.590Z</time>
      </trkpt>
      <trkpt lat="50.088166" lon="8.631843">
        <ele>96.756742</ele>
        <time>2026-04-15T20:44:14.898Z</time>
      </trkpt>
      <trkpt lat="50.088155" lon="8.631927">
        <ele>96.752994</ele>
        <time>2026-04-15T20:44:16.246Z</time>
      </trkpt>
      <trkpt lat="50.088215" lon="8.632257">
        <ele>96.738001</ele>
        <time>2026-04-15T20:44:21.614Z</time>
      </trkpt>
      <trkpt lat="50.088248" lon="8.632383">
        <ele>96.732051</ele>
        <time>2026-04-15T20:44:23.647Z</time>
      </trkpt>
      <trkpt lat="50.088504" lon="8.634369">
        <ele>96.749769</ele>
        <time>2026-04-15T20:44:52.547Z</time>
      </trkpt>
      <trkpt lat="50.088594" lon="8.635067">
        <ele>96.947301</ele>
        <time>2026-04-15T20:45:03.301Z</time>
      </trkpt>
      <trkpt lat="50.088672" lon="8.635044">
        <ele>96.981629</ele>
        <time>2026-04-15T20:45:04.730Z</time>
      </trkpt>
      <trkpt lat="50.088693" lon="8.635194">
        <ele>97.024226</ele>
        <time>2026-04-15T20:45:06.590Z</time>
      </trkpt>
      <trkpt lat="50.088696" lon="8.635221">
        <ele>97.031829</ele>
        <time>2026-04-15T20:45:06.910Z</time>
      </trkpt>
      <trkpt lat="50.088633" lon="8.635352">
        <ele>97.077252</ele>
        <time>2026-04-15T20:45:08.924Z</time>
      </trkpt>
      <trkpt lat="50.088694" lon="8.635797">
        <ele>97.203503</ele>
        <time>2026-04-15T20:45:29.230Z</time>
      </trkpt>
      <trkpt lat="50.088717" lon="8.635967">
        <ele>97.251707</ele>
        <time>2026-04-15T20:45:36.963Z</time>
      </trkpt>
      <trkpt lat="50.088684" lon="8.636107">
        <ele>97.293088</ele>
        <time>2026-04-15T20:45:43.632Z</time>
      </trkpt>
      <trkpt lat="50.088705" lon="8.636168">
        <ele>97.312295</ele>
        <time>2026-04-15T20:45:44.871Z</time>
      </trkpt>
      <trkpt lat="50.088458" lon="8.636339">
        <ele>97.429169</ele>
        <time>2026-04-15T20:45:51.007Z</time>
      </trkpt>
      <trkpt lat="50.088419" lon="8.636351">
        <ele>97.454276</ele>
        <time>2026-04-15T20:45:51.925Z</time>
      </trkpt>
      <trkpt lat="50.088409" lon="8.636291">
        <ele>97.484320</ele>
        <time>2026-04-15T20:45:54.675Z</time>
      </trkpt>
      <trkpt lat="50.088117" lon="8.636410">
        <ele>97.712301</ele>
        <time>2026-04-15T20:46:15.642Z</time>
      </trkpt>
      <trkpt lat="50.088068" lon="8.636430">
        <ele>97.750562</ele>
        <time>2026-04-15T20:46:19.167Z</time>
      </trkpt>
      <trkpt lat="50.087925" lon="8.636347">
        <ele>97.865826</ele>
        <time>2026-04-15T20:46:29.784Z</time>
      </trkpt>
      <trkpt lat="50.087898" lon="8.636371">
        <ele>97.889304</ele>
        <time>2026-04-15T20:46:31.932Z</time>
      </trkpt>
      <trkpt lat="50.087870" lon="8.636425">
        <ele>97.922953</ele>
        <time>2026-04-15T20:46:35.010Z</time>
      </trkpt>
      <trkpt lat="50.087862" lon="8.636540">
        <ele>97.979014</ele>
        <time>2026-04-15T20:46:40.166Z</time>
      </trkpt>
      <trkpt lat="50.087750" lon="8.636561">
        <ele>98.064225</ele>
        <time>2026-04-15T20:46:42.492Z</time>
      </trkpt>
      <trkpt lat="50.087715" lon="8.636807">
        <ele>98.186345</ele>
        <time>2026-04-15T20:46:45.742Z</time>
      </trkpt>
      <trkpt lat="50.087706" lon="8.636874">
        <ele>98.219521</ele>
        <time>2026-04-15T20:46:46.596Z</time>
      </trkpt>
      <trkpt lat="50.087680" lon="8.637301">
        <ele>98.427397</ele>
        <time>2026-04-15T20:46:52.077Z</time>
      </trkpt>
      <trkpt lat="50.087728" lon="8.637953">
        <ele>98.745463</ele>
        <time>2026-04-15T20:47:00.332Z</time>
      </trkpt>
      <trkpt lat="50.087737" lon="8.638079">
        <ele>98.799369</ele>
        <time>2026-04-15T20:47:01.839Z</time>
      </trkpt>
      <trkpt lat="50.087755" lon="8.638259">
        <ele>98.834508</ele>
        <time>2026-04-15T20:47:04.005Z</time>
      </trkpt>
      <trkpt lat="50.087847" lon="8.639417">
        <ele>99.059577</ele>
        <time>2026-04-15T20:47:17.088Z</time>
      </trkpt>
      <trkpt lat="50.087881" lon="8.639755">
        <ele>99.125569</ele>
        <time>2026-04-15T20:47:21.174Z</time>
      </trkpt>
      <trkpt lat="50.087884" lon="8.639783">
        <ele>99.131045</ele>
        <time>2026-04-15T20:47:21.541Z</time>
      </trkpt>
      <trkpt lat="50.087827" lon="8.639944">
        <ele>99.166514</ele>
        <time>2026-04-15T20:47:23.881Z</time>
      </trkpt>
      <trkpt lat="50.087813" lon="8.640030">
        <ele>99.183627</ele>
        <time>2026-04-15T20:47:25.054Z</time>
      </trkpt>
      <trkpt lat="50.087808" lon="8.640058">
        <ele>99.189234</ele>
        <time>2026-04-15T20:47:25.422Z</time>
      </trkpt>
      <trkpt lat="50.087823" lon="8.640852">
        <ele>99.337668</ele>
        <time>2026-04-15T20:47:35.123Z</time>
      </trkpt>
      <trkpt lat="50.087830" lon="8.641122">
        <ele>99.355830</ele>
        <time>2026-04-15T20:47:38.218Z</time>
      </trkpt>
      <trkpt lat="50.087890" lon="8.641557">
        <ele>99.385734</ele>
        <time>2026-04-15T20:47:43.205Z</time>
      </trkpt>
      <trkpt lat="50.087901" lon="8.641637">
        <ele>99.391233</ele>
        <time>2026-04-15T20:47:44.113Z</time>
      </trkpt>
      <trkpt lat="50.087868" lon="8.641647">
        <ele>99.394754</ele>
        <time>2026-04-15T20:47:44.751Z</time>
      </trkpt>
      <trkpt lat="50.087129" lon="8.641882">
        <ele>99.473761</ele>
        <time>2026-04-15T20:47:58.190Z</time>
      </trkpt>
      <trkpt lat="50.087087" lon="8.641895">
        <ele>99.478246</ele>
        <time>2026-04-15T20:47:58.910Z</time>
      </trkpt>
      <trkpt lat="50.087024" lon="8.641916">
        <ele>99.484995</ele>
        <time>2026-04-15T20:47:59.988Z</time>
      </trkpt>
      <trkpt lat="50.086922" lon="8.641950">
        <ele>99.495921</ele>
        <time>2026-04-15T20:48:01.722Z</time>
      </trkpt>
      <trkpt lat="50.086552" lon="8.642072">
        <ele>99.529641</ele>
        <time>2026-04-15T20:48:07.837Z</time>
      </trkpt>
      <trkpt lat="50.086484" lon="8.642095">
        <ele>99.533353</ele>
        <time>2026-04-15T20:48:08.998Z</time>
      </trkpt>
      <trkpt lat="50.086410" lon="8.642124">
        <ele>99.537424</ele>
        <time>2026-04-15T20:48:10.289Z</time>
      </trkpt>
      <trkpt lat="50.085835" lon="8.642302">
        <ele>99.568701</ele>
        <time>2026-04-15T20:48:20.917Z</time>
      </trkpt>
      <trkpt lat="50.085744" lon="8.642336">
        <ele>99.573694</ele>
        <time>2026-04-15T20:48:22.667Z</time>
      </trkpt>
      <trkpt lat="50.085692" lon="8.642355">
        <ele>99.576544</ele>
        <time>2026-04-15T20:48:23.638Z</time>
      </trkpt>
      <trkpt lat="50.085661" lon="8.642365">
        <ele>99.578233</ele>
        <time>2026-04-15T20:48:24.192Z</time>
      </trkpt>
      <trkpt lat="50.085109" lon="8.642542">
        <ele>99.608300</ele>
        <time>2026-04-15T20:48:33.616Z</time>
      </trkpt>
      <trkpt lat="50.085050" lon="8.642561">
        <ele>99.611515</ele>
        <time>2026-04-15T20:48:34.588Z</time>
      </trkpt>
      <trkpt lat="50.085054" lon="8.642650">
        <ele>99.614569</ele>
        <time>2026-04-15T20:48:35.653Z</time>
      </trkpt>
      <trkpt lat="50.085055" lon="8.642667">
        <ele>99.615153</ele>
        <time>2026-04-15T20:48:35.868Z</time>
      </trkpt>
      <trkpt lat="50.085088" lon="8.643403">
        <ele>99.628288</ele>
        <time>2026-04-15T20:48:44.736Z</time>
      </trkpt>
      <trkpt lat="50.085092" lon="8.643487">
        <ele>99.629502</ele>
        <time>2026-04-15T20:48:45.677Z</time>
      </trkpt>
      <trkpt lat="50.085061" lon="8.643506">
        <ele>99.630249</ele>
        <time>2026-04-15T20:48:46.288Z</time>
      </trkpt>
      <trkpt lat="50.084795" lon="8.643666">
        <ele>99.636650</ele>
        <time>2026-04-15T20:48:51.358Z</time>
      </trkpt>
      <trkpt lat="50.084436" lon="8.643884">
        <ele>99.645299</ele>
        <time>2026-04-15T20:48:57.637Z</time>
      </trkpt>
      <trkpt lat="50.084269" lon="8.643984">
        <ele>99.649315</ele>
        <time>2026-04-15T20:49:00.435Z</time>
      </trkpt>
      <trkpt lat="50.084095" lon="8.644089">
        <ele>99.653504</ele>
        <time>2026-04-15T20:49:03.429Z</time>
      </trkpt>
      <trkpt lat="50.083913" lon="8.644199">
        <ele>99.657886</ele>
        <time>2026-04-15T20:49:06.760Z</time>
      </trkpt>
      <trkpt lat="50.083858" lon="8.644232">
        <ele>99.659209</ele>
        <time>2026-04-15T20:49:07.896Z</time>
      </trkpt>
      <trkpt lat="50.083776" lon="8.644284">
        <ele>99.689347</ele>
        <time>2026-04-15T20:49:09.568Z</time>
      </trkpt>
      <trkpt lat="50.083830" lon="8.644407">
        <ele>99.736706</ele>
        <time>2026-04-15T20:49:16.189Z</time>
      </trkpt>
      <trkpt lat="50.084041" lon="8.644899">
        <ele>99.924756</ele>
        <time>2026-04-15T20:49:42.604Z</time>
      </trkpt>
      <trkpt lat="50.084224" lon="8.645292">
        <ele>100.079059</ele>
        <time>2026-04-15T20:50:04.239Z</time>
      </trkpt>
      <trkpt lat="50.084415" lon="8.645701">
        <ele>100.239804</ele>
        <time>2026-04-15T20:50:26.805Z</time>
      </trkpt>
      <trkpt lat="50.084389" lon="8.645731">
        <ele>100.255825</ele>
        <time>2026-04-15T20:50:29.098Z</time>
      </trkpt>
      <trkpt lat="50.084359" lon="8.645764">
        <ele>100.274010</ele>
        <time>2026-04-15T20:50:31.607Z</time>
      </trkpt>
      <trkpt lat="50.084344" lon="8.645782">
        <ele>100.283385</ele>
        <time>2026-04-15T20:50:32.921Z</time>
      </trkpt>
      <trkpt lat="50.084336" lon="8.645791">
        <ele>100.288271</ele>
        <time>2026-04-15T20:50:33.618Z</time>
      </trkpt>
      <trkpt lat="50.084290" lon="8.645843">
        <ele>100.316414</ele>
        <time>2026-04-15T20:50:37.581Z</time>
      </trkpt>
      <trkpt lat="50.084272" lon="8.645863">
        <ele>100.327362</ele>
        <time>2026-04-15T20:50:39.103Z</time>
      </trkpt>
      <trkpt lat="50.084266" lon="8.645870">
        <ele>100.331074</ele>
        <time>2026-04-15T20:50:39.668Z</time>
      </trkpt>
      <trkpt lat="50.084243" lon="8.645896">
        <ele>100.345145</ele>
        <time>2026-04-15T20:50:41.610Z</time>
      </trkpt>
      <trkpt lat="50.084332" lon="8.646079">
        <ele>100.418113</ele>
        <time>2026-04-15T20:50:44.752Z</time>
      </trkpt>
      <trkpt lat="50.084528" lon="8.646493">
        <ele>100.556945</ele>
        <time>2026-04-15T20:50:52.241Z</time>
      </trkpt>
      <trkpt lat="50.084748" lon="8.646944">
        <ele>100.593761</ele>
        <time>2026-04-15T20:50:59.730Z</time>
      </trkpt>
      <trkpt lat="50.085096" lon="8.647661">
        <ele>100.652184</ele>
        <time>2026-04-15T20:51:09.689Z</time>
      </trkpt>
      <trkpt lat="50.085154" lon="8.647776">
        <ele>100.661689</ele>
        <time>2026-04-15T20:51:11.193Z</time>
      </trkpt>
      <trkpt lat="50.085550" lon="8.648575">
        <ele>100.727297</ele>
        <time>2026-04-15T20:51:21.591Z</time>
      </trkpt>
      <trkpt lat="50.085745" lon="8.649057">
        <ele>100.548499</ele>
        <time>2026-04-15T20:51:27.601Z</time>
      </trkpt>
      <trkpt lat="50.085842" lon="8.649317">
        <ele>100.434378</ele>
        <time>2026-04-15T20:51:30.813Z</time>
      </trkpt>
      <trkpt lat="50.085890" lon="8.649521">
        <ele>100.351930</ele>
        <time>2026-04-15T20:51:33.104Z</time>
      </trkpt>
      <trkpt lat="50.085924" lon="8.649686">
        <ele>100.286172</ele>
        <time>2026-04-15T20:51:34.954Z</time>
      </trkpt>
      <trkpt lat="50.085976" lon="8.649848">
        <ele>100.217439</ele>
        <time>2026-04-15T20:51:36.808Z</time>
      </trkpt>
      <trkpt lat="50.086032" lon="8.649951">
        <ele>100.166212</ele>
        <time>2026-04-15T20:51:38.135Z</time>
      </trkpt>
      <trkpt lat="50.086132" lon="8.650056">
        <ele>100.094905</ele>
        <time>2026-04-15T20:51:39.996Z</time>
      </trkpt>
      <trkpt lat="50.086155" lon="8.650068">
        <ele>100.080562</ele>
        <time>2026-04-15T20:51:40.355Z</time>
      </trkpt>
      <trkpt lat="50.086138" lon="8.650175">
        <ele>100.038735</ele>
        <time>2026-04-15T20:51:45.254Z</time>
      </trkpt>
      <trkpt lat="50.086126" lon="8.650246">
        <ele>100.010875</ele>
        <time>2026-04-15T20:51:46.053Z</time>
      </trkpt>
      <trkpt lat="50.086320" lon="8.650564">
        <ele>99.844377</ele>
        <time>2026-04-15T20:51:50.784Z</time>
      </trkpt>
      <trkpt lat="50.086641" lon="8.650923">
        <ele>99.646255</ele>
        <time>2026-04-15T20:51:57.501Z</time>
      </trkpt>
      <trkpt lat="50.087096" lon="8.651567">
        <ele>99.504003</ele>
        <time>2026-04-15T20:52:08.212Z</time>
      </trkpt>
      <trkpt lat="50.087181" lon="8.651699">
        <ele>99.476231</ele>
        <time>2026-04-15T20:52:10.365Z</time>
      </trkpt>
      <trkpt lat="50.087352" lon="8.651890">
        <ele>99.427540</ele>
        <time>2026-04-15T20:52:14.229Z</time>
      </trkpt>
      <trkpt lat="50.087464" lon="8.652197">
        <ele>99.375096</ele>
        <time>2026-04-15T20:52:18.446Z</time>
      </trkpt>
      <trkpt lat="50.087650" lon="8.652076">
        <ele>99.328448</ele>
        <time>2026-04-15T20:52:22.427Z</time>
      </trkpt>
      <trkpt lat="50.087774" lon="8.651995">
        <ele>99.297330</ele>
        <time>2026-04-15T20:52:25.250Z</time>
      </trkpt>
      <trkpt lat="50.088258" lon="8.651700">
        <ele>99.413513</ele>
        <time>2026-04-15T20:52:37.358Z</time>
      </trkpt>
      <trkpt lat="50.088276" lon="8.651744">
        <ele>99.429950</ele>
        <time>2026-04-15T20:52:38.066Z</time>
      </trkpt>
      <trkpt lat="50.088380" lon="8.652238">
        <ele>99.593711</ele>
        <time>2026-04-15T20:52:47.209Z</time>
      </trkpt>
      <trkpt lat="50.088375" lon="8.652366">
        <ele>99.634102</ele>
        <time>2026-04-15T20:52:49.414Z</time>
      </trkpt>
      <trkpt lat="50.088363" lon="8.652562">
        <ele>99.696118</ele>
        <time>2026-04-15T20:52:52.688Z</time>
      </trkpt>
      <trkpt lat="50.088326" lon="8.653211">
        <ele>99.901344</ele>
        <time>2026-04-15T20:53:03.468Z</time>
      </trkpt>
      <trkpt lat="50.088262" lon="8.654247">
        <ele>100.033207</ele>
        <time>2026-04-15T20:53:19.580Z</time>
      </trkpt>
      <trkpt lat="50.088225" lon="8.654842">
        <ele>99.826307</ele>
        <time>2026-04-15T20:53:28.495Z</time>
      </trkpt>
      <trkpt lat="50.088057" lon="8.658535">
        <ele>98.599520</ele>
        <time>2026-04-15T20:54:18.243Z</time>
      </trkpt>
      <trkpt lat="50.088018" lon="8.659425">
        <ele>98.317931</ele>
        <time>2026-04-15T20:54:31.681Z</time>
      </trkpt>
      <trkpt lat="50.087976" lon="8.659462">
        <ele>98.294196</ele>
        <time>2026-04-15T20:54:32.827Z</time>
      </trkpt>
      <trkpt lat="50.087954" lon="8.659608">
        <ele>98.324168</ele>
        <time>2026-04-15T20:54:34.644Z</time>
      </trkpt>
      <trkpt lat="50.087940" lon="8.659756">
        <ele>98.384985</ele>
        <time>2026-04-15T20:54:36.449Z</time>
      </trkpt>
      <trkpt lat="50.087974" lon="8.659802">
        <ele>98.413512</ele>
        <time>2026-04-15T20:54:37.597Z</time>
      </trkpt>
      <trkpt lat="50.088059" lon="8.659837">
        <ele>98.469216</ele>
        <time>2026-04-15T20:54:39.838Z</time>
      </trkpt>
      <trkpt lat="50.088120" lon="8.659870">
        <ele>98.510128</ele>
        <time>2026-04-15T20:54:41.583Z</time>
      </trkpt>
      <trkpt lat="50.088075" lon="8.660809">
        <ele>98.892921</ele>
        <time>2026-04-15T20:54:58.122Z</time>
      </trkpt>
      <trkpt lat="50.088047" lon="8.661405">
        <ele>99.135861</ele>
        <time>2026-04-15T20:55:07.996Z</time>
      </trkpt>
      <trkpt lat="50.088014" lon="8.661801">
        <ele>99.298198</ele>
        <time>2026-04-15T20:55:14.533Z</time>
      </trkpt>
      <trkpt lat="50.087628" lon="8.663721">
        <ele>100.540888</ele>
        <time>2026-04-15T20:55:49.279Z</time>
      </trkpt>
      <trkpt lat="50.087142" lon="8.666253">
        <ele>102.383341</ele>
        <time>2026-04-15T20:56:38.889Z</time>
      </trkpt>
      <trkpt lat="50.087137" lon="8.666292">
        <ele>102.412255</ele>
        <time>2026-04-15T20:56:39.690Z</time>
      </trkpt>
      <trkpt lat="50.087089" lon="8.666203">
        <ele>102.496784</ele>
        <time>2026-04-15T20:56:41.315Z</time>
      </trkpt>
      <trkpt lat="50.087077" lon="8.666272">
        <ele>102.548759</ele>
        <time>2026-04-15T20:56:42.428Z</time>
      </trkpt>
      <trkpt lat="50.087027" lon="8.666309">
        <ele>102.611477</ele>
        <time>2026-04-15T20:56:44.224Z</time>
      </trkpt>
      <trkpt lat="50.087170" lon="8.666589">
        <ele>102.871661</ele>
        <time>2026-04-15T20:56:49.908Z</time>
      </trkpt>
      <trkpt lat="50.087176" lon="8.666709">
        <ele>102.959170</ele>
        <time>2026-04-15T20:56:51.847Z</time>
      </trkpt>
      <trkpt lat="50.087392" lon="8.667096">
        <ele>103.293801</ele>
        <time>2026-04-15T20:56:59.536Z</time>
      </trkpt>
      <trkpt lat="50.087546" lon="8.667377">
        <ele>103.295433</ele>
        <time>2026-04-15T20:57:04.760Z</time>
      </trkpt>
      <trkpt lat="50.087688" lon="8.667635">
        <ele>103.296935</ele>
        <time>2026-04-15T20:57:09.267Z</time>
      </trkpt>
      <trkpt lat="50.087774" lon="8.667690">
        <ele>103.297575</ele>
        <time>2026-04-15T20:57:11.072Z</time>
      </trkpt>
      <trkpt lat="50.088094" lon="8.668261">
        <ele>103.300923</ele>
        <time>2026-04-15T20:57:20.401Z</time>
      </trkpt>
      <trkpt lat="50.088276" lon="8.668704">
        <ele>103.303246</ele>
        <time>2026-04-15T20:57:27.024Z</time>
      </trkpt>
      <trkpt lat="50.088332" lon="8.668813">
        <ele>103.303863</ele>
        <time>2026-04-15T20:57:28.758Z</time>
      </trkpt>
      <trkpt lat="50.088516" lon="8.669148">
        <ele>103.305811</ele>
        <time>2026-04-15T20:57:34.183Z</time>
      </trkpt>
      <trkpt lat="50.088462" lon="8.669336">
        <ele>103.213705</ele>
        <time>2026-04-15T20:57:37.132Z</time>
      </trkpt>
      <trkpt lat="50.088462" lon="8.669431">
        <ele>103.163572</ele>
        <time>2026-04-15T20:57:38.466Z</time>
      </trkpt>
      <trkpt lat="50.088706" lon="8.669914">
        <ele>102.839166</ele>
        <time>2026-04-15T20:57:46.976Z</time>
      </trkpt>
      <trkpt lat="50.089038" lon="8.670502">
        <ele>102.425834</ele>
        <time>2026-04-15T20:57:57.409Z</time>
      </trkpt>
      <trkpt lat="50.089262" lon="8.670897">
        <ele>102.147642</ele>
        <time>2026-04-15T20:58:04.529Z</time>
      </trkpt>
      <trkpt lat="50.089275" lon="8.671183">
        <ele>101.996342</ele>
        <time>2026-04-15T20:58:17.286Z</time>
      </trkpt>
      <trkpt lat="50.089281" lon="8.671316">
        <ele>101.925985</ele>
        <time>2026-04-15T20:58:23.263Z</time>
      </trkpt>
      <trkpt lat="50.089331" lon="8.671311">
        <ele>101.884776</ele>
        <time>2026-04-15T20:58:24.326Z</time>
      </trkpt>
      <trkpt lat="50.089340" lon="8.671436">
        <ele>101.826005</ele>
        <time>2026-04-15T20:58:29.948Z</time>
      </trkpt>
      <trkpt lat="50.089469" lon="8.671306">
        <ele>101.816869</ele>
        <time>2026-04-15T20:58:40.656Z</time>
      </trkpt>
      <trkpt lat="50.089456" lon="8.671545">
        <ele>101.807717</ele>
        <time>2026-04-15T20:58:42.923Z</time>
      </trkpt>
      <trkpt lat="50.089458" lon="8.671551">
        <ele>101.807459</ele>
        <time>2026-04-15T20:58:42.994Z</time>
      </trkpt>
      <trkpt lat="50.089523" lon="8.671727">
        <ele>101.799711</ele>
        <time>2026-04-15T20:58:44.959Z</time>
      </trkpt>
      <trkpt lat="50.089586" lon="8.671804">
        <ele>101.794949</ele>
        <time>2026-04-15T20:58:46.229Z</time>
      </trkpt>
      <trkpt lat="50.089864" lon="8.672180">
        <ele>101.773060</ele>
        <time>2026-04-15T20:58:52.049Z</time>
      </trkpt>
      <trkpt lat="50.089999" lon="8.672251">
        <ele>101.764587</ele>
        <time>2026-04-15T20:58:54.546Z</time>
      </trkpt>
      <trkpt lat="50.090161" lon="8.672349">
        <ele>101.754252</ele>
        <time>2026-04-15T20:58:57.963Z</time>
      </trkpt>
      <trkpt lat="50.090253" lon="8.672470">
        <ele>101.747093</ele>
        <time>2026-04-15T20:59:00.373Z</time>
      </trkpt>
      <trkpt lat="50.090947" lon="8.673755">
        <ele>102.522959</ele>
        <time>2026-04-15T20:59:23.701Z</time>
      </trkpt>
      <trkpt lat="50.090885" lon="8.673831">
        <ele>102.625844</ele>
        <time>2026-04-15T20:59:25.601Z</time>
      </trkpt>
      <trkpt lat="50.090612" lon="8.674170">
        <ele>103.081135</ele>
        <time>2026-04-15T20:59:33.907Z</time>
      </trkpt>
      <trkpt lat="50.090085" lon="8.674796">
        <ele>103.945419</ele>
        <time>2026-04-15T20:59:50.104Z</time>
      </trkpt>
      <trkpt lat="50.089893" lon="8.675048">
        <ele>104.160693</ele>
        <time>2026-04-15T20:59:55.876Z</time>
      </trkpt>
      <trkpt lat="50.090025" lon="8.675339">
        <ele>104.297427</ele>
        <time>2026-04-15T21:00:01.192Z</time>
      </trkpt>
      <trkpt lat="50.090207" lon="8.675650">
        <ele>104.458928</ele>
        <time>2026-04-15T21:00:07.293Z</time>
      </trkpt>
      <trkpt lat="50.090424" lon="8.676021">
        <ele>104.651541</ele>
        <time>2026-04-15T21:00:14.152Z</time>
      </trkpt>
      <trkpt lat="50.090466" lon="8.676094">
        <ele>104.689161</ele>
        <time>2026-04-15T21:00:15.416Z</time>
      </trkpt>
      <trkpt lat="50.090650" lon="8.676407">
        <ele>104.852035</ele>
        <time>2026-04-15T21:00:20.790Z</time>
      </trkpt>
      <trkpt lat="50.090727" lon="8.676540">
        <ele>104.920766</ele>
        <time>2026-04-15T21:00:22.826Z</time>
      </trkpt>
      <trkpt lat="50.090865" lon="8.676775">
        <ele>105.042992</ele>
        <time>2026-04-15T21:00:26.384Z</time>
      </trkpt>
      <trkpt lat="50.091002" lon="8.677011">
        <ele>105.139787</ele>
        <time>2026-04-15T21:00:29.910Z</time>
      </trkpt>
      <trkpt lat="50.091112" lon="8.677199">
        <ele>105.133343</ele>
        <time>2026-04-15T21:00:32.670Z</time>
      </trkpt>
      <trkpt lat="50.091283" lon="8.677491">
        <ele>105.123330</ele>
        <time>2026-04-15T21:00:36.849Z</time>
      </trkpt>
      <trkpt lat="50.091349" lon="8.677604">
        <ele>105.119461</ele>
        <time>2026-04-15T21:00:38.496Z</time>
      </trkpt>
      <trkpt lat="50.091497" lon="8.677857">
        <ele>105.110790</ele>
        <time>2026-04-15T21:00:42.333Z</time>
      </trkpt>
      <trkpt lat="50.091500" lon="8.678052">
        <ele>105.105850</ele>
        <time>2026-04-15T21:00:44.581Z</time>
      </trkpt>
      <trkpt lat="50.091439" lon="8.678222">
        <ele>105.100917</ele>
        <time>2026-04-15T21:00:46.848Z</time>
      </trkpt>
      <trkpt lat="50.091285" lon="8.678229">
        <ele>105.094836</ele>
        <time>2026-04-15T21:00:49.775Z</time>
      </trkpt>
      <trkpt lat="50.091171" lon="8.678273">
        <ele>105.090200</ele>
        <time>2026-04-15T21:00:52.040Z</time>
      </trkpt>
      <trkpt lat="50.091169" lon="8.678275">
        <ele>105.090106</ele>
        <time>2026-04-15T21:00:52.090Z</time>
      </trkpt>
      <trkpt lat="50.091041" lon="8.678375">
        <ele>105.084454</ele>
        <time>2026-04-15T21:00:54.846Z</time>
      </trkpt>
      <trkpt lat="50.090967" lon="8.678497">
        <ele>105.080202</ele>
        <time>2026-04-15T21:00:56.792Z</time>
      </trkpt>
      <trkpt lat="50.091222" lon="8.678824">
        <ele>105.072733</ele>
        <time>2026-04-15T21:01:02.406Z</time>
      </trkpt>
      <trkpt lat="50.091460" lon="8.679128">
        <ele>105.081793</ele>
        <time>2026-04-15T21:01:07.846Z</time>
      </trkpt>
      <trkpt lat="50.091668" lon="8.679364">
        <ele>105.089368</ele>
        <time>2026-04-15T21:01:12.207Z</time>
      </trkpt>
      <trkpt lat="50.092098" lon="8.679724">
        <ele>105.103739</ele>
        <time>2026-04-15T21:01:20.684Z</time>
      </trkpt>
      <trkpt lat="50.092928" lon="8.680337">
        <ele>105.087245</ele>
        <time>2026-04-15T21:01:36.339Z</time>
      </trkpt>
      <trkpt lat="50.093340" lon="8.680629">
        <ele>105.022885</ele>
        <time>2026-04-15T21:01:44.294Z</time>
      </trkpt>
      <trkpt lat="50.093547" lon="8.680769">
        <ele>104.990797</ele>
        <time>2026-04-15T21:01:48.159Z</time>
      </trkpt>
      <trkpt lat="50.094444" lon="8.681409">
        <ele>104.807666</ele>
        <time>2026-04-15T21:02:04.416Z</time>
      </trkpt>
      <trkpt lat="50.094616" lon="8.681382">
        <ele>104.721221</ele>
        <time>2026-04-15T21:02:07.131Z</time>
      </trkpt>
      <trkpt lat="50.094644" lon="8.681519">
        <ele>104.675096</ele>
        <time>2026-04-15T21:02:08.626Z</time>
      </trkpt>
      <trkpt lat="50.094676" lon="8.681601">
        <ele>104.644305</ele>
        <time>2026-04-15T21:02:09.606Z</time>
      </trkpt>
      <trkpt lat="50.095099" lon="8.682075">
        <ele>104.383798</ele>
        <time>2026-04-15T21:02:17.418Z</time>
      </trkpt>
      <trkpt lat="50.095413" lon="8.682445">
        <ele>104.186966</ele>
        <time>2026-04-15T21:02:23.606Z</time>
      </trkpt>
      <trkpt lat="50.095375" lon="8.682536">
        <ele>104.152134</ele>
        <time>2026-04-15T21:02:25.217Z</time>
      </trkpt>
      <trkpt lat="50.095567" lon="8.682736">
        <ele>104.036660</ele>
        <time>2026-04-15T21:02:41.298Z</time>
      </trkpt>
      <trkpt lat="50.095807" lon="8.683041">
        <ele>103.992784</ele>
        <time>2026-04-15T21:03:02.776Z</time>
      </trkpt>
      <trkpt lat="50.095943" lon="8.683232">
        <ele>104.018954</ele>
        <time>2026-04-15T21:03:15.506Z</time>
      </trkpt>
      <trkpt lat="50.096288" lon="8.683716">
        <ele>104.085310</ele>
        <time>2026-04-15T21:03:47.792Z</time>
      </trkpt>
      <trkpt lat="50.096559" lon="8.684083">
        <ele>104.136631</ele>
        <time>2026-04-15T21:04:12.711Z</time>
      </trkpt>
      <trkpt lat="50.096793" lon="8.684401">
        <ele>104.181012</ele>
        <time>2026-04-15T21:04:34.257Z</time>
      </trkpt>
      <trkpt lat="50.096860" lon="8.684489">
        <ele>104.193538</ele>
        <time>2026-04-15T21:04:40.374Z</time>
      </trkpt>
      <trkpt lat="50.096904" lon="8.684545">
        <ele>104.201658</ele>
        <time>2026-04-15T21:04:44.316Z</time>
      </trkpt>
      <trkpt lat="50.097041" lon="8.684741">
        <ele>104.238279</ele>
        <time>2026-04-15T21:04:57.262Z</time>
      </trkpt>
      <trkpt lat="50.097460" lon="8.685347">
        <ele>104.594393</ele>
        <time>2026-04-15T21:05:36.973Z</time>
      </trkpt>
      <trkpt lat="50.097633" lon="8.685642">
        <ele>104.754144</ele>
        <time>2026-04-15T21:05:54.785Z</time>
      </trkpt>
      <trkpt lat="50.098194" lon="8.686601">
        <ele>105.272880</ele>
        <time>2026-04-15T21:06:52.631Z</time>
      </trkpt>
      <trkpt lat="50.098232" lon="8.686668">
        <ele>105.308624</ele>
        <time>2026-04-15T21:06:56.648Z</time>
      </trkpt>
      <trkpt lat="50.098107" lon="8.686759">
        <ele>105.557558</ele>
        <time>2026-04-15T21:07:00.299Z</time>
      </trkpt>
      <trkpt lat="50.097619" lon="8.686696">
        <ele>106.884352</ele>
        <time>2026-04-15T21:07:14.557Z</time>
      </trkpt>
      <trkpt lat="50.097848" lon="8.687807">
        <ele>108.912657</ele>
        <time>2026-04-15T21:07:39.224Z</time>
      </trkpt>
      <trkpt lat="50.098089" lon="8.689025">
        <ele>111.181189</ele>
        <time>2026-04-15T21:08:04.718Z</time>
      </trkpt>
      <trkpt lat="50.098690" lon="8.690982">
        <ele>115.172655</ele>
        <time>2026-04-15T21:08:44.582Z</time>
      </trkpt>
      <trkpt lat="50.098099" lon="8.690937">
        <ele>116.863239</ele>
        <time>2026-04-15T21:09:08.824Z</time>
      </trkpt>
      <trkpt lat="50.098014" lon="8.690929">
        <ele>117.106413</ele>
        <time>2026-04-15T21:09:12.640Z</time>
      </trkpt>
      <trkpt lat="50.097100" lon="8.690833">
        <ele>119.722416</ele>
        <time>2026-04-15T21:09:48.153Z</time>
      </trkpt>
      <trkpt lat="50.097061" lon="8.690840">
        <ele>119.834523</ele>
        <time>2026-04-15T21:09:49.255Z</time>
      </trkpt>
      <trkpt lat="50.096946" lon="8.690819">
        <ele>120.165171</ele>
        <time>2026-04-15T21:09:52.027Z</time>
      </trkpt>
      <trkpt lat="50.096941" lon="8.690889">
        <ele>120.294196</ele>
        <time>2026-04-15T21:09:55.173Z</time>
      </trkpt>
      <trkpt lat="50.096936" lon="8.690928">
        <ele>120.367052</ele>
        <time>2026-04-15T21:09:56.930Z</time>
      </trkpt>
      <trkpt lat="50.096932" lon="8.690963">
        <ele>120.432178</ele>
        <time>2026-04-15T21:09:58.514Z</time>
      </trkpt>
      <trkpt lat="50.096927" lon="8.691005">
        <ele>120.510431</ele>
        <time>2026-04-15T21:10:00.398Z</time>
      </trkpt>
      <trkpt lat="50.096923" lon="8.691087">
        <ele>120.513995</ele>
        <time>2026-04-15T21:10:04.076Z</time>
      </trkpt>
      <trkpt lat="50.097275" lon="8.691083">
        <ele>120.513995</ele>
        <time>2026-04-15T21:10:12.376Z</time>
      </trkpt>
      <trkpt lat="50.097772" lon="8.691140">
        <ele>120.513995</ele>
        <time>2026-04-15T21:10:22.909Z</time>
      </trkpt>
    </trkseg>
  </trk>
</gpx>